Time;durP1;ratioP1;P1;durP2;ratioP2;P2;SDS_P1;SDS_P2;PMS_P1;PMS_P2;Temp;Humidity;BMP_temperature;BMP_pressure;BME280_temperature;BME280_humidity;BME280_pressure;Samples;Min_cycle;Max_cycle;Signal;HPM_P1;HPM_P2
2023/10/06 00:01:43;;;;;;;0.50;0.50;;;;;;;10.63;100.00;101184.78;5069727;28;20052;-62
2023/10/06 00:04:13;;;;;;;0.60;0.60;;;;;;;10.61;100.00;101181.28;5067683;28;20373;-61
2023/10/06 00:06:42;;;;;;;0.50;0.50;;;;;;;10.59;100.00;101177.75;5069902;28;20033;-60
2023/10/06 00:09:28;;;;;;;0.57;0.57;;;;;;;10.54;100.00;101182.25;5067363;28;20526;-60
2023/10/06 00:11:57;;;;;;;0.60;0.60;;;;;;;10.53;100.00;101177.84;5084943;28;20036;-61
2023/10/06 00:17:09;;;;;;;0.60;0.60;;;;;;;10.50;100.00;101188.53;5086209;28;20055;-61
2023/10/06 00:19:36;;;;;;;0.55;0.55;;;;;;;10.54;100.00;101195.53;5082587;28;20032;-61
2023/10/06 00:24:36;;;;;;;0.50;0.50;;;;;;;10.40;100.00;101191.31;5072326;28;20107;-62
2023/10/06 00:27:03;;;;;;;0.60;0.60;;;;;;;10.36;100.00;101194.94;5070669;28;20028;-61
2023/10/06 00:29:29;;;;;;;0.60;0.60;;;;;;;10.37;100.00;101192.25;5070497;28;20033;-61
2023/10/06 00:32:43;;;;;;;0.60;0.60;;;;;;;10.33;100.00;101186.97;5071283;28;20035;-62
2023/10/06 00:34:44;;;;;;;0.52;0.52;;;;;;;10.27;100.00;101185.28;5062689;28;20044;-62
2023/10/06 00:37:11;;;;;;;0.70;0.70;;;;;;;10.23;100.00;101194.19;5071232;28;20496;-62
2023/10/06 00:39:37;;;;;;;0.70;0.70;;;;;;;10.21;100.00;101188.00;5073621;28;20043;-62
2023/10/06 00:42:04;;;;;;;0.60;0.60;;;;;;;10.20;100.00;101196.91;5089452;28;20024;-61
2023/10/06 00:44:30;;;;;;;0.70;0.70;;;;;;;10.17;100.00;101196.94;5091042;28;20061;-60
2023/10/06 00:46:58;;;;;;;0.60;0.60;;;;;;;10.19;100.00;101187.16;5079009;28;20561;-61
2023/10/06 00:49:25;;;;;;;0.60;0.60;;;;;;;10.17;100.00;101183.66;5070661;28;20107;-61
2023/10/06 00:51:53;;;;;;;0.60;0.60;;;;;;;10.21;100.00;101190.66;5072663;28;20032;-61
2023/10/06 00:54:19;;;;;;;0.60;0.60;;;;;;;10.26;100.00;101185.31;5071641;28;20033;-61
2023/10/06 00:56:46;;;;;;;0.60;0.60;;;;;;;10.30;100.00;101182.59;5090549;28;20024;-61
2023/10/06 00:59:12;;;;;;;0.60;0.60;;;;;;;10.30;100.00;101179.94;5086432;28;20059;-60
2023/10/06 01:01:39;;;;;;;0.60;0.60;;;;;;;10.30;100.00;101179.03;5082726;28;20066;-60
2023/10/06 01:06:34;;;;;;;0.60;0.60;;;;;;;10.34;100.00;101165.72;5070880;28;20051;-61
2023/10/06 01:09:15;;;;;;;0.50;0.50;;;;;;;10.33;100.00;101163.94;5085922;28;20028;-62
2023/10/06 01:11:45;;;;;;;0.60;0.60;;;;;;;10.36;100.00;101147.91;5086183;28;20110;-61
2023/10/06 01:14:11;;;;;;;0.60;0.60;;;;;;;10.37;100.00;101149.69;5088112;28;20042;-61
2023/10/06 01:16:37;;;;;;;0.70;0.70;;;;;;;10.41;100.00;101156.72;5085000;28;20040;-62
2023/10/06 01:21:53;;;;;;;0.60;0.60;;;;;;;10.36;100.00;101157.72;5070444;28;20066;-62
2023/10/06 01:24:25;;;;;;;0.60;0.60;;;;;;;10.37;100.00;101157.69;5067834;28;20115;-60
2023/10/06 01:26:59;;;;;;;0.60;0.60;;;;;;;10.27;100.00;101148.06;5080222;28;20035;-61
2023/10/06 01:29:31;;;;;;;0.63;0.63;;;;;;;10.22;100.00;101149.91;5088435;28;20047;-62
2023/10/06 01:31:58;;;;;;;0.60;0.60;;;;;;;10.16;100.00;101149.09;5084398;28;20032;-62
2023/10/06 01:34:24;;;;;;;0.60;0.60;;;;;;;10.15;100.00;101147.31;5087244;28;20028;-61
2023/10/06 01:36:53;;;;;;;0.60;0.60;;;;;;;10.10;100.00;101150.06;5088550;28;20501;-61
2023/10/06 01:39:22;;;;;;;0.70;0.70;;;;;;;10.05;100.00;101157.16;5084301;28;20378;-61
2023/10/06 01:41:48;;;;;;;0.70;0.70;;;;;;;9.96;100.00;101141.34;5088383;28;20039;-61
2023/10/06 01:44:15;;;;;;;0.70;0.70;;;;;;;9.92;100.00;101155.56;5081645;28;20094;-62
2023/10/06 01:46:44;;;;;;;0.70;0.70;;;;;;;9.87;100.00;101159.16;5068135;28;20029;-61
2023/10/06 01:49:10;;;;;;;0.80;0.80;;;;;;;9.82;100.00;101161.03;5068234;28;20039;-62
2023/10/06 01:51:39;;;;;;;0.70;0.70;;;;;;;9.77;100.00;101163.69;5068765;28;20052;-57
2023/10/06 01:54:12;;;;;;;0.70;0.70;;;;;;;9.74;100.00;101157.53;5070974;28;20047;-57
2023/10/06 01:56:42;;;;;;;0.70;0.70;;;;;;;9.73;100.00;101155.78;5068718;28;20107;-57
2023/10/06 01:59:10;;;;;;;0.70;0.70;;;;;;;9.69;100.00;101149.63;5070941;28;20290;-57
2023/10/06 02:01:38;;;;;;;0.70;0.70;;;;;;;9.60;100.00;101152.41;5085885;28;20608;-57
2023/10/06 02:04:07;;;;;;;0.70;0.70;;;;;;;9.59;100.00;101153.28;5087012;28;20026;-58
2023/10/06 02:06:33;;;;;;;0.60;0.60;;;;;;;9.55;100.00;101158.66;5070189;28;20086;-58
2023/10/06 02:08:59;;;;;;;0.70;0.70;;;;;;;9.51;100.00;101152.47;5079708;28;20464;-57
2023/10/06 02:11:30;;;;;;;0.60;0.60;;;;;;;9.52;100.00;101151.59;5037502;28;1145638;-57
2023/10/06 02:13:56;;;;;;;0.60;0.60;;;;;;;9.53;100.00;101149.81;5066253;28;20112;-58
2023/10/06 02:16:26;;;;;;;0.60;0.60;;;;;;;9.46;100.00;101153.41;5066369;28;20135;-58
2023/10/06 02:18:54;;;;;;;0.68;0.68;;;;;;;9.41;100.00;101148.16;5086074;28;20068;-57
2023/10/06 02:21:24;;;;;;;0.60;0.60;;;;;;;9.36;100.00;101146.47;5087640;28;20020;-56
2023/10/06 02:23:51;;;;;;;0.70;0.70;;;;;;;9.33;100.00;101147.34;5088879;28;20036;-57
2023/10/06 02:26:17;;;;;;;0.60;0.60;;;;;;;9.35;100.00;101145.56;5084055;28;20110;-57
2023/10/06 02:28:48;;;;;;;0.70;0.70;;;;;;;9.33;100.00;101134.97;5069418;28;20043;-57
2023/10/06 02:31:21;;;;;;;0.60;0.60;;;;;;;9.39;100.00;101141.97;5069160;28;20067;-58
2023/10/06 02:33:50;;;;;;;0.80;0.80;;;;;;;9.44;100.00;101148.13;5071069;28;20392;-57
2023/10/06 02:36:17;;;;;;;0.60;0.60;;;;;;;9.42;100.00;101138.41;5069081;28;20381;-57
2023/10/06 02:38:52;;;;;;;0.60;0.60;;;;;;;9.36;100.00;101128.72;5068687;28;20082;-57
2023/10/06 02:41:21;;;;;;;0.65;0.65;;;;;;;9.37;100.00;101134.94;5074302;28;20491;-57
2023/10/06 02:43:51;;;;;;;0.60;0.60;;;;;;;9.35;100.00;101134.94;5088816;28;20053;-57
2023/10/06 02:46:20;;;;;;;0.63;0.63;;;;;;;9.30;100.00;101134.09;5087761;28;20028;-57
2023/10/06 02:48:50;;;;;;;0.60;0.60;;;;;;;9.27;100.00;101131.50;5070665;28;20024;-57
2023/10/06 02:51:29;;;;;;;0.60;0.60;;;;;;;9.34;100.00;101133.16;5068264;28;20468;-58
2023/10/06 02:54:09;;;;;;;0.70;0.70;;;;;;;9.41;100.00;101131.38;5068762;28;20372;-57
2023/10/06 02:56:34;;;;;;;0.70;0.70;;;;;;;9.51;100.00;101133.88;5070954;28;20036;-57
2023/10/06 02:59:08;;;;;;;0.65;0.65;;;;;;;9.58;100.00;101135.59;5068015;28;20029;-59
2023/10/06 03:01:38;;;;;;;0.75;0.75;;;;;;;9.58;100.00;101132.03;5070022;28;20475;-57
2023/10/06 03:04:07;;;;;;;0.70;0.70;;;;;;;9.60;100.00;101136.47;5068163;28;20043;-58
2023/10/06 03:06:33;;;;;;;0.70;0.70;;;;;;;9.67;100.00;101140.78;5087144;28;20028;-58
2023/10/06 03:09:05;;;;;;;0.75;0.75;;;;;;;9.62;100.00;101137.31;5087597;28;20077;-57
2023/10/06 03:11:31;;;;;;;0.63;0.63;;;;;;;9.70;100.00;101134.56;5080061;28;20074;-58
2023/10/06 03:13:58;;;;;;;0.70;0.70;;;;;;;9.71;100.00;101145.19;5087491;28;20420;-58
2023/10/06 03:16:25;;;;;;;0.70;0.70;;;;;;;9.72;100.00;101140.75;5087244;28;20027;-57
2023/10/06 03:18:52;;;;;;;0.70;0.70;;;;;;;9.78;100.00;101124.75;5088578;28;20103;-58
2023/10/06 03:21:18;;;;;;;0.75;0.75;;;;;;;9.89;100.00;101139.66;5083882;28;20526;-57
2023/10/06 03:23:58;;;;;;;0.80;0.80;;;;;;;10.02;100.00;101141.25;5087262;28;20024;-58
2023/10/06 03:26:33;;;;;;;0.70;0.70;;;;;;;10.08;100.00;101140.34;5087109;28;20024;-58
2023/10/06 03:29:02;;;;;;;0.60;0.60;;;;;;;10.14;100.00;101135.84;5085585;28;20028;-57
2023/10/06 03:31:44;;;;;;;0.70;0.70;;;;;;;10.20;100.00;101146.38;5087302;28;20027;-57
2023/10/06 03:34:15;;;;;;;0.70;0.70;;;;;;;10.27;100.00;101153.38;5087160;28;20027;-58
2023/10/06 03:36:51;;;;;;;0.63;0.63;;;;;;;10.26;100.00;101151.59;5086161;28;20149;-57
2023/10/06 03:39:23;;;;;;;0.63;0.63;;;;;;;10.29;100.00;101167.53;5086581;28;20032;-57
2023/10/06 03:41:53;;;;;;;0.60;0.60;;;;;;;10.33;100.00;101155.94;5088114;28;20145;-56
2023/10/06 03:44:29;;;;;;;0.70;0.70;;;;;;;10.27;100.00;101158.69;5087597;28;20052;-57
2023/10/06 03:47:00;;;;;;;0.70;0.70;;;;;;;10.16;100.00;101142.03;5079897;28;20040;-58
2023/10/06 03:49:26;;;;;;;0.60;0.60;;;;;;;10.26;100.00;101148.94;5067756;28;20104;-58
2023/10/06 03:51:55;;;;;;;0.70;0.70;;;;;;;10.19;100.00;101139.31;5067832;28;20032;-58
2023/10/06 03:54:21;;;;;;;0.60;0.60;;;;;;;10.19;100.00;101139.31;5067276;28;20746;-57
2023/10/06 03:56:49;;;;;;;0.60;0.60;;;;;;;10.21;100.00;101142.81;5070257;28;20033;-57
2023/10/06 03:59:15;;;;;;;0.60;0.60;;;;;;;10.21;100.00;101148.13;5066980;28;20028;-58
2023/10/06 04:01:44;;;;;;;0.63;0.63;;;;;;;10.18;100.00;101148.16;5079716;28;20022;-57
2023/10/06 04:04:10;;;;;;;0.70;0.70;;;;;;;10.17;100.00;101145.53;5068775;28;20056;-56
2023/10/06 04:06:36;;;;;;;0.60;0.60;;;;;;;10.19;100.00;101141.97;5066489;28;20039;-57
2023/10/06 04:09:02;;;;;;;0.60;0.60;;;;;;;10.19;100.00;101138.44;5066652;28;20032;-57
2023/10/06 04:11:31;;;;;;;0.70;0.70;;;;;;;10.23;100.00;101130.38;5075524;28;20036;-58
2023/10/06 04:13:57;;;;;;;0.60;0.60;;;;;;;10.27;100.00;101132.09;5087338;28;20734;-58
2023/10/06 04:16:23;;;;;;;0.60;0.60;;;;;;;10.24;100.00;101129.50;5086016;28;20058;-57
2023/10/06 04:18:49;;;;;;;0.70;0.70;;;;;;;10.22;100.00;101127.75;5085228;28;20372;-57
2023/10/06 04:21:15;;;;;;;0.60;0.60;;;;;;;10.27;100.00;101131.22;5087508;28;20727;-57
2023/10/06 04:23:41;;;;;;;0.60;0.60;;;;;;;10.29;100.00;101124.13;5076927;28;20082;-57
2023/10/06 04:26:13;;;;;;;0.68;0.68;;;;;;;10.23;100.00;101122.41;5067417;28;20033;-57
2023/10/06 04:28:39;;;;;;;0.70;0.70;;;;;;;10.18;100.00;101128.69;5069938;28;20761;-57
2023/10/06 04:31:07;;;;;;;0.70;0.70;;;;;;;9.98;100.00;101118.25;5067354;28;20089;-58
2023/10/06 04:33:33;;;;;;;0.60;0.60;;;;;;;10.03;100.00;101124.41;5066945;28;20492;-57
2023/10/06 04:36:08;;;;;;;0.70;0.70;;;;;;;10.06;100.00;101132.38;5082230;28;20061;-57
2023/10/06 04:38:37;;;;;;;0.70;0.70;;;;;;;10.08;100.00;101133.22;5079853;28;20105;-56
2023/10/06 04:41:09;;;;;;;0.60;0.60;;;;;;;10.11;100.00;101132.34;5077212;28;20023;-57
2023/10/06 04:43:36;;;;;;;0.70;0.70;;;;;;;10.08;100.00;101138.56;5087490;28;20509;-57
2023/10/06 04:46:05;;;;;;;0.70;0.70;;;;;;;10.08;100.00;101141.22;5087092;28;20047;-57
2023/10/06 04:48:31;;;;;;;0.70;0.70;;;;;;;10.08;100.00;101146.53;5073501;28;20024;-57
2023/10/06 04:50:57;;;;;;;0.60;0.60;;;;;;;10.11;100.00;101145.63;5066704;28;20507;-57
2023/10/06 04:53:22;;;;;;;0.70;0.70;;;;;;;10.14;100.00;101146.47;5068843;28;20028;-56
2023/10/06 04:55:48;;;;;;;0.70;0.70;;;;;;;10.15;100.00;101137.59;5079939;28;20020;-58
2023/10/06 04:58:14;;;;;;;0.70;0.70;;;;;;;10.08;100.00;101129.72;5086007;28;20043;-57
2023/10/06 05:00:40;;;;;;;0.70;0.70;;;;;;;10.14;100.00;101146.47;5083924;28;20443;-57
2023/10/06 05:03:06;;;;;;;0.65;0.65;;;;;;;10.13;100.00;101142.03;5065659;28;20096;-57
2023/10/06 05:05:38;;;;;;;0.70;0.70;;;;;;;10.09;100.00;101132.34;5077003;28;20498;-56
2023/10/06 05:08:05;;;;;;;0.68;0.68;;;;;;;10.13;100.00;101144.69;5075612;28;20162;-58
2023/10/06 05:10:31;;;;;;;0.70;0.70;;;;;;;10.14;100.00;101138.50;5074662;28;20059;-57
2023/10/06 05:13:02;;;;;;;0.65;0.65;;;;;;;10.16;100.00;101133.16;5086130;28;20173;-56
2023/10/06 05:15:30;;;;;;;0.70;0.70;;;;;;;10.14;100.00;101132.28;5090014;28;20032;-57
2023/10/06 05:18:00;;;;;;;0.77;0.77;;;;;;;10.06;100.00;101115.53;5090359;28;20046;-57
2023/10/06 05:20:29;;;;;;;0.60;0.60;;;;;;;10.16;100.00;101128.72;5073968;28;20377;-57
2023/10/06 05:23:07;;;;;;;0.60;0.60;;;;;;;10.19;100.00;101139.31;5070684;28;20100;-57
2023/10/06 05:25:33;;;;;;;0.70;0.70;;;;;;;10.21;100.00;101137.50;5086482;28;20019;-57
2023/10/06 05:27:59;;;;;;;0.60;0.60;;;;;;;10.23;100.00;101135.69;5087376;28;20032;-58
2023/10/06 05:30:26;;;;;;;0.70;0.70;;;;;;;10.27;100.00;101142.75;5078534;28;20035;-57
2023/10/06 05:32:52;;;;;;;0.70;0.70;;;;;;;10.29;100.00;101151.59;5089764;28;20032;-57
2023/10/06 05:35:20;;;;;;;0.68;0.68;;;;;;;10.28;100.00;101143.63;5089451;28;20028;-57
2023/10/06 05:37:46;;;;;;;0.60;0.60;;;;;;;10.38;100.00;101150.56;5085571;28;20507;-57
2023/10/06 05:40:12;;;;;;;0.70;0.70;;;;;;;10.29;100.00;101150.69;5078159;28;20067;-57
2023/10/06 05:42:40;;;;;;;0.60;0.60;;;;;;;10.25;100.00;101154.28;5089296;28;20056;-57
2023/10/06 05:45:15;;;;;;;0.70;0.70;;;;;;;10.24;100.00;101153.44;5074794;28;20154;-56
2023/10/06 05:47:42;;;;;;;0.70;0.70;;;;;;;10.25;100.00;101149.84;5067584;28;20407;-57
2023/10/06 05:50:08;;;;;;;0.70;0.70;;;;;;;10.24;100.00;101156.09;5073376;28;20059;-58
2023/10/06 05:52:38;;;;;;;0.60;0.60;;;;;;;10.25;100.00;101141.88;5065479;28;20792;-57
2023/10/06 05:55:09;;;;;;;0.70;0.70;;;;;;;10.38;100.00;101159.44;5088020;28;20024;-57
2023/10/06 05:57:38;;;;;;;0.60;0.60;;;;;;;10.35;100.00;101162.13;5082277;28;20024;-57
2023/10/06 06:00:09;;;;;;;0.70;0.70;;;;;;;10.19;100.00;101157.94;5084715;28;20356;-57
2023/10/06 06:02:37;;;;;;;0.70;0.70;;;;;;;10.12;100.00;101169.53;5086176;28;20020;-57
2023/10/06 06:05:04;;;;;;;0.70;0.70;;;;;;;10.10;100.00;101170.44;5088799;28;20480;-57
2023/10/06 06:07:30;;;;;;;0.65;0.65;;;;;;;10.10;100.00;101173.97;5085768;28;20135;-58
2023/10/06 06:09:55;;;;;;;0.60;0.60;;;;;;;10.13;100.00;101173.94;5088305;28;20115;-57
2023/10/06 06:12:21;;;;;;;0.60;0.60;;;;;;;10.14;100.00;101182.81;5087938;28;20024;-58
2023/10/06 06:14:47;;;;;;;0.70;0.70;;;;;;;10.16;100.00;101186.31;5082770;28;20035;-57
2023/10/06 06:17:12;;;;;;;0.70;0.70;;;;;;;10.11;100.00;101178.41;5081175;28;20036;-57
2023/10/06 06:19:39;;;;;;;0.70;0.70;;;;;;;10.15;100.00;101182.78;5088235;28;20032;-57
2023/10/06 06:22:05;;;;;;;0.70;0.70;;;;;;;10.15;100.00;101188.09;5084083;28;20038;-58
2023/10/06 06:24:32;;;;;;;0.60;0.60;;;;;;;10.19;100.00;101194.25;5089582;28;20077;-58
2023/10/06 06:26:59;;;;;;;0.70;0.70;;;;;;;10.29;100.00;101194.13;5069412;28;20237;-57
2023/10/06 06:29:25;;;;;;;0.70;0.70;;;;;;;10.41;100.00;101191.28;5071558;28;20028;-57
2023/10/06 06:31:52;;;;;;;0.70;0.70;;;;;;;10.45;100.00;101198.34;5069338;28;20089;-62
2023/10/06 06:34:18;;;;;;;0.70;0.70;;;;;;;10.54;100.00;101198.22;5074750;28;20032;-61
2023/10/06 06:36:45;;;;;;;0.60;0.60;;;;;;;10.59;100.00;101203.50;5085958;28;20032;-62
2023/10/06 06:39:10;;;;;;;0.70;0.70;;;;;;;10.65;100.00;101208.72;5073323;28;20115;-62
2023/10/06 06:41:36;;;;;;;0.60;0.60;;;;;;;10.77;100.00;101205.00;5088721;28;20107;-62
2023/10/06 06:44:03;;;;;;;0.70;0.70;;;;;;;10.87;100.00;101203.97;5087799;28;20028;-61
2023/10/06 06:46:31;;;;;;;0.80;0.80;;;;;;;10.99;100.00;101204.66;5078315;28;20138;-61
2023/10/06 06:48:58;;;;;;;0.70;0.70;;;;;;;10.98;100.00;101204.69;5067639;28;20890;-61
2023/10/06 06:51:28;;;;;;;0.60;0.60;;;;;;;11.15;100.00;101206.16;5079448;28;20462;-61
2023/10/06 06:53:57;;;;;;;0.65;0.65;;;;;;;11.25;100.00;101206.91;5086184;28;20024;-61
2023/10/06 06:56:29;;;;;;;0.70;0.70;;;;;;;11.42;100.00;101199.50;5087320;28;20023;-60
2023/10/06 06:58:59;;;;;;;0.60;0.60;;;;;;;11.58;100.00;101206.34;5086196;28;20069;-61
2023/10/06 07:01:25;;;;;;;0.60;0.60;;;;;;;11.81;100.00;101201.50;5088694;28;20082;-61
2023/10/06 07:03:50;;;;;;;0.60;0.60;;;;;;;11.91;100.00;101200.41;5088743;28;20127;-61
2023/10/06 07:06:16;;;;;;;0.70;0.70;;;;;;;12.06;100.00;101207.25;5088623;28;20031;-60
2023/10/06 07:08:48;;;;;;;0.68;0.68;;;;;;;12.37;100.00;101211.91;5081924;28;20027;-62
2023/10/06 07:11:14;;;;;;;0.60;0.60;;;;;;;12.86;100.00;101201.94;5088053;28;20080;-61
2023/10/06 07:13:39;;;;;;;0.60;0.60;;;;;;;13.33;100.00;101189.28;5084512;28;20035;-62
2023/10/06 07:16:05;;;;;;;0.50;0.50;;;;;;;14.19;100.00;101191.34;5071363;28;20390;-61
2023/10/06 07:18:31;;;;;;;0.55;0.55;;;;;;;15.23;100.00;101188.13;5087926;28;20056;-62
2023/10/06 07:20:57;;;;;;;0.50;0.50;;;;;;;17.08;95.70;101185.78;5088234;28;20020;-61
2023/10/06 07:23:23;;;;;;;0.50;0.50;;;;;;;19.00;81.38;101188.78;5084876;28;20537;-61
2023/10/06 07:25:48;;;;;;;0.40;0.40;;;;;;;20.55;68.37;101183.41;5088365;28;20028;-61
2023/10/06 07:28:14;;;;;;;0.50;0.50;;;;;;;21.97;56.29;101192.25;5085902;28;20039;-61
2023/10/06 07:30:39;;;;;;;0.40;0.40;;;;;;;22.97;53.78;101203.94;5087537;28;20383;-62
2023/10/06 07:33:08;;;;;;;0.30;0.30;;;;;;;23.52;49.54;101205.75;5087003;28;20042;-61
2023/10/06 07:35:51;;;;;;;0.30;0.30;;;;;;;24.07;47.71;101214.66;5080034;28;20023;-61
2023/10/06 07:38:18;;;;;;;0.30;0.30;;;;;;;24.55;45.70;101212.06;5086886;28;20674;-60
2023/10/06 07:40:43;;;;;;;0.20;0.20;;;;;;;24.89;43.02;101212.41;5083529;28;20127;-61
2023/10/06 07:43:10;;;;;;;0.28;0.28;;;;;;;25.14;42.88;101215.06;5085607;28;20028;-60
2023/10/06 07:45:38;;;;;;;0.20;0.20;;;;;;;25.36;42.60;101209.78;5083273;28;20697;-60
2023/10/06 07:48:05;;;;;;;0.20;0.20;;;;;;;25.66;42.86;101222.00;5085930;28;20024;-60
2023/10/06 07:50:33;;;;;;;0.20;0.20;;;;;;;25.88;41.86;101218.50;5085858;28;20170;-60
2023/10/06 07:52:58;;;;;;;0.17;0.17;;;;;;;25.94;41.46;101218.00;5072815;28;20036;-60
2023/10/06 07:55:24;;;;;;;0.20;0.20;;;;;;;26.08;41.52;101219.72;5080291;28;20392;-61
2023/10/06 07:57:50;;;;;;;0.20;0.20;;;;;;;26.35;40.71;101223.00;5083504;28;20039;-60
2023/10/06 08:00:30;;;;;;;0.10;0.10;;;;;;;26.35;40.15;101212.94;5067185;28;20033;-60
2023/10/06 08:02:57;;;;;;;0.20;0.20;;;;;;;26.49;40.43;101222.78;5085154;28;20012;-60
2023/10/06 08:05:23;;;;;;;0.20;0.20;;;;;;;25.98;40.96;101214.03;5087451;28;20521;-60
2023/10/06 08:07:49;;;;;;;0.20;0.20;;;;;;;25.98;41.42;101206.75;5083696;28;20032;-60
2023/10/06 08:10:16;;;;;;;0.10;0.10;;;;;;;25.66;41.87;101200.19;5070229;28;20462;-60
2023/10/06 08:12:46;;;;;;;0.20;0.20;;;;;;;25.00;42.93;101194.28;5085329;28;20017;-60
2023/10/06 08:15:17;;;;;;;0.20;0.20;;;;;;;24.91;43.50;101191.38;5067939;28;20039;-60
2023/10/06 08:17:43;;;;;;;0.13;0.13;;;;;;;24.73;43.73;101199.03;5067595;28;20124;-60
2023/10/06 08:20:12;;;;;;;0.17;0.17;;;;;;;24.35;44.05;101189.97;5080699;28;20773;-60
2023/10/06 08:22:38;;;;;;;0.15;0.15;;;;;;;24.22;44.95;101187.25;5080028;28;20052;-60
2023/10/06 08:25:05;;;;;;;0.10;0.10;;;;;;;24.19;45.02;101178.44;5067353;28;20037;-60
2023/10/06 08:27:32;;;;;;;0.10;0.10;;;;;;;23.87;46.71;101179.78;5069418;28;20092;-60
2023/10/06 08:29:57;;;;;;;0.20;0.20;;;;;;;23.73;45.76;101188.00;5067267;28;20035;-60
2023/10/06 08:32:24;;;;;;;0.10;0.10;;;;;;;23.87;46.86;101190.66;5066369;28;20486;-60
2023/10/06 08:34:49;;;;;;;0.20;0.20;;;;;;;23.63;47.48;101181.44;5065700;28;20181;-59
2023/10/06 08:37:15;;;;;;;0.17;0.17;;;;;;;23.63;48.45;101186.88;5068089;28;20070;-60
2023/10/06 08:39:40;;;;;;;0.10;0.10;;;;;;;23.41;48.43;101193.78;5067158;28;20052;-59
2023/10/06 08:42:15;;;;;;;0.10;0.10;;;;;;;23.91;48.07;101192.19;5073164;28;20074;-59
2023/10/06 08:44:41;;;;;;;0.10;0.10;;;;;;;24.04;47.77;101193.09;5071338;28;20081;-59
2023/10/06 08:47:13;;;;;;;0.10;0.10;;;;;;;23.84;48.39;101190.88;5083128;28;20388;-59
2023/10/06 08:49:43;;;;;;;0.10;0.10;;;;;;;23.68;49.51;101201.91;5070005;28;20037;-58
2023/10/06 08:52:12;;;;;;;0.10;0.10;;;;;;;24.18;48.75;101191.19;5073633;28;20043;-57
2023/10/06 08:54:38;;;;;;;0.10;0.10;;;;;;;24.55;48.60;101203.03;5075453;28;20051;-57
2023/10/06 08:57:03;;;;;;;0.10;0.10;;;;;;;24.05;48.64;101192.16;5080007;28;20036;-57
2023/10/06 08:59:32;;;;;;;0.10;0.10;;;;;;;24.12;49.67;101188.88;5070818;28;20039;-57
2023/10/06 09:02:00;;;;;;;0.10;0.10;;;;;;;24.40;48.97;101188.66;5075827;28;20072;-57
2023/10/06 09:04:34;;;;;;;0.10;0.10;;;;;;;24.34;49.60;101186.41;5086518;28;20024;-57
2023/10/06 09:07:08;;;;;;;0.10;0.10;;;;;;;24.34;49.06;101196.41;5075417;28;20051;-58
2023/10/06 09:09:33;;;;;;;;;;;;;;;24.34;48.92;101199.13;5070554;28;20086;-57
2023/10/06 09:11:59;;;;;;;0.10;0.10;;;;;;;24.42;48.85;101194.88;5082292;28;19921;-57
2023/10/06 09:14:25;;;;;;;0.10;0.10;;;;;;;24.31;49.28;101185.75;5069841;28;20081;-56
2023/10/06 09:16:51;;;;;;;0.10;0.10;;;;;;;24.47;49.06;101175.50;5070541;28;20024;-57
2023/10/06 09:19:17;;;;;;;0.10;0.10;;;;;;;24.77;48.91;101173.34;5072861;28;20369;-56
2023/10/06 09:22:12;;;;;;;0.10;0.10;;;;;;;24.57;48.62;101176.59;5074381;28;20023;-56
2023/10/06 09:24:39;;;;;;;0.10;0.10;;;;;;;24.29;50.25;101177.69;5053010;28;20044;-56
2023/10/06 09:27:20;;;;;;;0.10;0.10;;;;;;;24.19;49.58;101178.44;5072965;28;20111;-57
2023/10/06 09:29:45;;;;;;;0.10;0.10;;;;;;;24.04;49.73;101176.78;5068995;28;20502;-57
2023/10/06 09:32:21;;;;;;;0.10;0.10;;;;;;;24.13;50.54;101176.16;5070242;28;20028;-57
2023/10/06 09:34:47;;;;;;;0.10;0.10;;;;;;;24.54;49.22;101172.25;5072528;28;20034;-58
2023/10/06 09:37:20;;;;;;;0.10;0.10;;;;;;;24.86;48.86;101166.34;5076858;28;20028;-57
2023/10/06 09:39:58;;;;;;;0.10;0.10;;;;;;;25.00;47.33;101164.34;5070345;28;20107;-58
2023/10/06 09:42:30;;;;;;;0.10;0.10;;;;;;;24.77;46.71;101162.44;5080755;28;20027;-57
2023/10/06 09:45:15;;;;;;;0.10;0.10;;;;;;;24.51;46.90;101166.16;5075877;28;20038;-57
2023/10/06 09:47:56;;;;;;;0.10;0.10;;;;;;;24.41;47.52;101151.47;5070012;28;20031;-58
2023/10/06 09:50:23;;;;;;;0.10;0.10;;;;;;;23.87;48.72;101163.50;5078243;28;20404;-58
2023/10/06 09:52:50;;;;;;;0.10;0.10;;;;;;;23.57;49.38;101160.16;5070678;28;20040;-58
2023/10/06 09:55:20;;;;;;;0.10;0.10;;;;;;;23.48;50.21;101166.19;5076743;28;20031;-57
2023/10/06 09:57:48;;;;;;;0.10;0.10;;;;;;;23.68;51.14;101141.25;5068726;28;20024;-58
2023/10/06 10:00:18;;;;;;;0.10;0.10;;;;;;;24.33;50.35;101146.56;5069260;28;20032;-60
2023/10/06 10:02:48;;;;;;;0.10;0.10;;;;;;;25.08;47.53;101142.84;5072101;28;20157;-60
2023/10/06 10:05:18;;;;;;;0.10;0.10;;;;;;;25.33;44.38;101142.75;5069080;28;20123;-59
2023/10/06 10:07:46;;;;;;;0.10;0.10;;;;;;;25.46;46.19;101137.28;5071889;28;20035;-60
2023/10/06 10:10:13;;;;;;;0.10;0.10;;;;;;;25.05;46.27;101151.25;5071173;28;20547;-60
2023/10/06 10:13:00;;;;;;;0.10;0.10;;;;;;;25.14;47.77;101147.00;5069183;28;20040;-60
2023/10/06 10:15:32;;;;;;;0.10;0.10;;;;;;;25.61;46.06;101147.00;5080602;28;20036;-60
2023/10/06 10:18:15;;;;;;;0.10;0.10;;;;;;;26.00;44.72;101152.06;5067901;28;20485;-63
2023/10/06 10:20:40;;;;;;;0.10;0.10;;;;;;;26.41;43.86;101143.41;5070117;28;20047;-62
2023/10/06 10:23:06;;;;;;;0.10;0.10;;;;;;;26.48;43.79;101129.13;5067274;28;20024;-61
2023/10/06 10:25:36;;;;;;;0.10;0.10;;;;;;;26.01;43.55;101131.13;5066934;28;20052;-62
2023/10/06 10:28:19;;;;;;;0.10;0.10;;;;;;;26.25;43.70;101141.00;5066751;28;20029;-62
2023/10/06 10:30:50;;;;;;;0.10;0.10;;;;;;;25.37;43.31;101133.38;5083691;28;20031;-61
2023/10/06 10:33:24;;;;;;;0.10;0.10;;;;;;;25.98;44.51;101127.66;5079375;28;20701;-62
2023/10/06 10:36:20;;;;;;;0.10;0.10;;;;;;;26.28;43.59;101108.03;5083832;28;20024;-61
2023/10/06 10:38:57;;;;;;;0.10;0.10;;;;;;;26.50;42.46;101104.44;5080170;28;20055;-61
2023/10/06 10:41:26;;;;;;;0.10;0.10;;;;;;;26.45;42.57;101112.13;5070910;28;20020;-62
2023/10/06 10:43:53;;;;;;;0.10;0.10;;;;;;;26.56;41.28;101117.56;5073190;28;20046;-61
2023/10/06 10:46:42;;;;;;;0.00;0.00;;;;;;;27.03;41.97;101114.56;5080644;28;20033;-61
2023/10/06 10:49:11;;;;;;;0.10;0.10;;;;;;;27.17;41.58;101109.69;5070974;28;20051;-61
2023/10/06 10:51:51;;;;;;;0.00;0.00;;;;;;;27.35;40.59;101112.75;5068118;28;20107;-61
2023/10/06 10:54:21;;;;;;;0.00;0.00;;;;;;;27.35;40.22;101101.81;5082221;28;20024;-61
2023/10/06 10:56:51;;;;;;;0.00;0.00;;;;;;;27.27;40.60;101103.44;5075878;28;20016;-61
2023/10/06 10:59:16;;;;;;;0.00;0.00;;;;;;;27.06;40.42;101092.47;5070627;28;20020;-61
2023/10/06 11:01:43;;;;;;;0.00;0.00;;;;;;;27.02;40.25;101097.31;5071237;28;20090;-61
2023/10/06 11:04:18;;;;;;;0.10;0.10;;;;;;;26.67;40.95;101099.34;5069485;28;20111;-61
2023/10/06 11:06:45;;;;;;;0.10;0.10;;;;;;;26.29;41.55;101092.53;5067784;28;20033;-62
2023/10/06 11:09:12;;;;;;;0.10;0.10;;;;;;;26.28;42.16;101085.31;5072655;28;20044;-61
2023/10/06 11:11:41;;;;;;;0.10;0.10;;;;;;;26.21;41.74;101084.09;5081983;28;20105;-58
2023/10/06 11:14:06;;;;;;;0.10;0.10;;;;;;;26.11;42.46;101083.97;5071259;28;20032;-59
2023/10/06 11:16:32;;;;;;;0.10;0.10;;;;;;;26.31;42.88;101085.94;5069348;28;20074;-59
2023/10/06 11:18:59;;;;;;;0.00;0.00;;;;;;;26.56;42.41;101082.97;5067851;28;20028;-59
2023/10/06 11:21:25;;;;;;;0.03;0.03;;;;;;;26.67;41.51;101082.13;5084386;28;20026;-59
2023/10/06 11:23:50;;;;;;;0.00;0.00;;;;;;;27.08;40.51;101076.81;5078387;28;20051;-59
2023/10/06 11:26:30;;;;;;;0.10;0.10;;;;;;;27.34;41.59;101075.50;5068602;28;20591;-59
2023/10/06 11:28:56;;;;;;;0.00;0.00;;;;;;;27.48;40.05;101077.91;5066872;28;20111;-59
2023/10/06 11:31:23;;;;;;;0.03;0.03;;;;;;;27.38;39.86;101073.38;5066340;28;20958;-59
2023/10/06 11:33:49;;;;;;;0.00;0.00;;;;;;;27.80;40.62;101076.00;5072628;28;20028;-59
2023/10/06 11:36:16;;;;;;;0.00;0.00;;;;;;;27.96;39.29;101068.22;5066908;28;20033;-59
2023/10/06 11:38:42;;;;;;;0.00;0.00;;;;;;;28.43;39.93;101074.94;5079007;28;20505;-58
2023/10/06 11:41:07;;;;;;;0.00;0.00;;;;;;;28.25;38.79;101066.47;5076733;28;20020;-59